sensor_id;sensor_type;location;lat;lon;timestamp;pressure;altitude;pressure_sealevel;temperature;humidity
58622;BME280;44389;51.578;5.456;2023-04-01T00:01:54;99033.38;;;8.14;100.00
58622;BME280;44389;51.578;5.456;2023-04-01T00:04:20;99024.00;;;8.15;100.00
58622;BME280;44389;51.578;5.456;2023-04-01T00:06:46;99023.13;;;8.14;100.00
58622;BME280;44389;51.578;5.456;2023-04-01T00:09:12;99029.97;;;8.14;100.00
58622;BME280;44389;51.578;5.456;2023-04-01T00:11:38;99023.13;;;8.13;100.00
58622;BME280;44389;51.578;5.456;2023-04-01T00:14:04;99028.25;;;8.14;100.00
58622;BME280;44389;51.578;5.456;2023-04-01T00:16:30;99025.69;;;8.13;100.00
58622;BME280;44389;51.578;5.456;2023-04-01T00:18:55;99032.53;;;8.14;100.00
58622;BME280;44389;51.578;5.456;2023-04-01T00:21:21;99034.22;;;8.12;100.00
58622;BME280;44389;51.578;5.456;2023-04-01T00:23:47;99038.50;;;8.11;100.00
58622;BME280;44389;51.578;5.456;2023-04-01T00:26:13;99026.50;;;8.10;100.00
58622;BME280;44389;51.578;5.456;2023-04-01T00:28:40;99038.50;;;8.11;100.00
58622;BME280;44389;51.578;5.456;2023-04-01T00:31:07;99041.06;;;8.11;100.00
58622;BME280;44389;51.578;5.456;2023-04-01T00:33:33;99037.63;;;8.11;100.00
58622;BME280;44389;51.578;5.456;2023-04-01T00:36:16;99044.47;;;8.10;100.00
58622;BME280;44389;51.578;5.456;2023-04-01T00:38:43;99041.91;;;8.10;100.00
58622;BME280;44389;51.578;5.456;2023-04-01T00:41:09;99041.91;;;8.10;100.00
58622;BME280;44389;51.578;5.456;2023-04-01T00:43:39;99041.91;;;8.10;100.00
58622;BME280;44389;51.578;5.456;2023-04-01T00:46:05;99053.00;;;8.09;100.00
58622;BME280;44389;51.578;5.456;2023-04-01T00:48:33;99061.59;;;8.11;100.00
58622;BME280;44389;51.578;5.456;2023-04-01T00:51:13;99060.75;;;8.12;100.00
58622;BME280;44389;51.578;5.456;2023-04-01T00:53:41;99065.88;;;8.12;100.00
58622;BME280;44389;51.578;5.456;2023-04-01T00:56:21;99069.31;;;8.14;100.00
58622;BME280;44389;51.578;5.456;2023-04-01T00:58:52;99063.34;;;8.14;100.00
58622;BME280;44389;51.578;5.456;2023-04-01T01:01:21;99073.59;;;8.14;100.00
58622;BME280;44389;51.578;5.456;2023-04-01T01:03:47;99063.34;;;8.14;100.00
58622;BME280;44389;51.578;5.456;2023-04-01T01:11:34;99065.88;;;8.12;100.00
58622;BME280;44389;51.578;5.456;2023-04-01T01:16:37;99079.56;;;8.14;100.00
58622;BME280;44389;51.578;5.456;2023-04-01T01:19:32;99074.44;;;8.14;100.00
58622;BME280;44389;51.578;5.456;2023-04-01T01:22:16;99073.59;;;8.14;100.00
58622;BME280;44389;51.578;5.456;2023-04-01T01:25:21;99078.72;;;8.14;100.00
58622;BME280;44389;51.578;5.456;2023-04-01T01:28:24;99076.16;;;8.15;100.00
58622;BME280;44389;51.578;5.456;2023-04-01T01:30:57;99078.72;;;8.12;100.00
58622;BME280;44389;51.578;5.456;2023-04-01T01:33:29;99076.16;;;8.12;100.00
58622;BME280;44389;51.578;5.456;2023-04-01T01:36:02;99077.00;;;8.11;100.00
58622;BME280;44389;51.578;5.456;2023-04-01T01:38:33;99083.81;;;8.11;100.00
58622;BME280;44389;51.578;5.456;2023-04-01T01:41:01;99088.94;;;8.11;100.00
58622;BME280;44389;51.578;5.456;2023-04-01T01:43:36;99081.25;;;8.11;100.00
58622;BME280;44389;51.578;5.456;2023-04-01T01:46:07;99091.50;;;8.09;100.00
58622;BME280;44389;51.578;5.456;2023-04-01T01:48:35;99086.38;;;8.09;100.00
58622;BME280;44389;51.578;5.456;2023-04-01T01:51:01;99087.19;;;8.08;100.00
58622;BME280;44389;51.578;5.456;2023-04-01T01:53:26;99088.91;;;8.07;100.00
58622;BME280;44389;51.578;5.456;2023-04-01T01:55:52;99093.19;;;8.07;100.00
58622;BME280;44389;51.578;5.456;2023-04-01T01:58:40;99100.03;;;8.08;100.00
58622;BME280;44389;51.578;5.456;2023-04-01T02:01:14;99098.28;;;8.05;100.00
58622;BME280;44389;51.578;5.456;2023-04-01T02:03:42;99104.28;;;8.04;100.00
58622;BME280;44389;51.578;5.456;2023-04-01T02:06:10;99103.41;;;8.04;100.00
58622;BME280;44389;51.578;5.456;2023-04-01T02:08:40;99106.81;;;8.03;100.00
58622;BME280;44389;51.578;5.456;2023-04-01T02:11:09;99115.38;;;8.02;100.00
58622;BME280;44389;51.578;5.456;2023-04-01T02:13:49;99114.47;;;8.00;100.00
58622;BME280;44389;51.578;5.456;2023-04-01T02:16:23;99117.88;;;7.99;100.00
58622;BME280;44389;51.578;5.456;2023-04-01T02:18:53;99115.28;;;7.96;100.00
58622;BME280;44389;51.578;5.456;2023-04-01T02:21:19;99115.34;;;8.00;100.00
58622;BME280;44389;51.578;5.456;2023-04-01T02:23:46;99111.00;;;7.93;100.00
58622;BME280;44389;51.578;5.456;2023-04-01T02:26:13;99112.66;;;7.89;100.00
58622;BME280;44389;51.578;5.456;2023-04-01T02:28:40;99110.91;;;7.88;100.00
58622;BME280;44389;51.578;5.456;2023-04-01T02:31:08;99116.88;;;7.87;100.00
58622;BME280;44389;51.578;5.456;2023-04-01T02:33:36;99116.84;;;7.84;100.00
58622;BME280;44389;51.578;5.456;2023-04-01T02:36:04;99114.31;;;7.86;100.00
58622;BME280;44389;51.578;5.456;2023-04-01T02:38:29;99122.84;;;7.85;100.00
58622;BME280;44389;51.578;5.456;2023-04-01T02:41:00;99123.69;;;7.84;100.00
58622;BME280;44389;51.578;5.456;2023-04-01T02:43:26;99126.28;;;7.84;100.00
58622;BME280;44389;51.578;5.456;2023-04-01T02:45:52;99122.81;;;7.83;100.00
58622;BME280;44389;51.578;5.456;2023-04-01T02:48:18;99128.78;;;7.82;100.00
58622;BME280;44389;51.578;5.456;2023-04-01T02:50:43;99123.66;;;7.82;100.00
58622;BME280;44389;51.578;5.456;2023-04-01T02:53:09;99133.06;;;7.82;100.00
58622;BME280;44389;51.578;5.456;2023-04-01T02:55:34;99124.53;;;7.83;100.00
58622;BME280;44389;51.578;5.456;2023-04-01T02:57:59;99133.91;;;7.82;100.00
58622;BME280;44389;51.578;5.456;2023-04-01T03:00:26;99137.34;;;7.81;100.00
58622;BME280;44389;51.578;5.456;2023-04-01T03:02:52;99136.47;;;7.81;100.00
58622;BME280;44389;51.578;5.456;2023-04-01T03:05:18;99135.63;;;7.80;100.00
58622;BME280;44389;51.578;5.456;2023-04-01T03:07:43;99142.41;;;7.78;100.00
58622;BME280;44389;51.578;5.456;2023-04-01T03:10:09;99140.72;;;7.79;100.00
58622;BME280;44389;51.578;5.456;2023-04-01T03:12:35;99137.28;;;7.78;100.00
58622;BME280;44389;51.578;5.456;2023-04-01T03:15:00;99144.97;;;7.77;100.00
58622;BME280;44389;51.578;5.456;2023-04-01T03:17:25;99144.13;;;7.76;100.00
58622;BME280;44389;51.578;5.456;2023-04-01T03:19:50;99139.00;;;7.76;100.00
58622;BME280;44389;51.578;5.456;2023-04-01T03:22:16;99146.69;;;7.78;100.00
58622;BME280;44389;51.578;5.456;2023-04-01T03:24:41;99148.38;;;7.75;100.00
58622;BME280;44389;51.578;5.456;2023-04-01T03:27:07;99152.66;;;7.75;100.00
58622;BME280;44389;51.578;5.456;2023-04-01T03:29:32;99151.75;;;7.74;100.00
58622;BME280;44389;51.578;5.456;2023-04-01T03:31:57;99147.53;;;7.75;100.00
58622;BME280;44389;51.578;5.456;2023-04-01T03:34:24;99155.19;;;7.73;100.00
58622;BME280;44389;51.578;5.456;2023-04-01T03:36:50;99155.22;;;7.75;100.00
58622;BME280;44389;51.578;5.456;2023-04-01T03:39:16;99159.44;;;7.73;100.00
58622;BME280;44389;51.578;5.456;2023-04-01T03:41:44;99164.56;;;7.73;100.00
58622;BME280;44389;51.578;5.456;2023-04-01T03:44:09;99157.72;;;7.72;100.00
58622;BME280;44389;51.578;5.456;2023-04-01T03:46:35;99162.00;;;7.71;100.00
58622;BME280;44389;51.578;5.456;2023-04-01T03:49:00;99164.53;;;7.70;100.00
58622;BME280;44389;51.578;5.456;2023-04-01T03:51:25;99167.09;;;7.68;100.00
58622;BME280;44389;51.578;5.456;2023-04-01T03:53:51;99164.53;;;7.68;100.00
58622;BME280;44389;51.578;5.456;2023-04-01T03:56:16;99167.94;;;7.69;100.00
58622;BME280;44389;51.578;5.456;2023-04-01T03:58:42;99173.91;;;7.69;100.00
58622;BME280;44389;51.578;5.456;2023-04-01T04:01:33;99170.53;;;7.70;100.00
58622;BME280;44389;51.578;5.456;2023-04-01T04:03:59;99173.06;;;7.69;100.00
58622;BME280;44389;51.578;5.456;2023-04-01T04:06:26;99177.34;;;7.68;100.00
58622;BME280;44389;51.578;5.456;2023-04-01T04:08:52;99188.44;;;7.67;100.00
58622;BME280;44389;51.578;5.456;2023-04-01T04:11:18;99183.28;;;7.66;100.00
58622;BME280;44389;51.578;5.456;2023-04-01T04:13:44;99178.16;;;7.66;100.00
58622;BME280;44389;51.578;5.456;2023-04-01T04:16:09;99194.31;;;7.62;100.00
58622;BME280;44389;51.578;5.456;2023-04-01T04:18:35;99186.63;;;7.62;100.00
58622;BME280;44389;51.578;5.456;2023-04-01T04:21:02;99190.06;;;7.61;100.00
58622;BME280;44389;51.578;5.456;2023-04-01T04:23:27;99194.28;;;7.58;100.00
58622;BME280;44389;51.578;5.456;2023-04-01T04:26:04;99197.69;;;7.59;100.00
58622;BME280;44389;51.578;5.456;2023-04-01T04:28:30;99203.72;;;7.60;100.00
58622;BME280;44389;51.578;5.456;2023-04-01T04:30:56;99199.38;;;7.55;100.00
58622;BME280;44389;51.578;5.456;2023-04-01T04:33:23;99213.03;;;7.54;100.00
58622;BME280;44389;51.578;5.456;2023-04-01T04:35:49;99207.03;;;7.54;100.00
58622;BME280;44389;51.578;5.456;2023-04-01T04:38:15;99209.56;;;7.52;100.00
58622;BME280;44389;51.578;5.456;2023-04-01T04:40:42;99214.69;;;7.51;100.00
58622;BME280;44389;51.578;5.456;2023-04-01T04:43:11;99212.13;;;7.51;100.00
58622;BME280;44389;51.578;5.456;2023-04-01T04:45:36;99209.56;;;7.51;100.00
58622;BME280;44389;51.578;5.456;2023-04-01T04:48:02;99213.78;;;7.49;100.00
58622;BME280;44389;51.578;5.456;2023-04-01T04:50:27;99215.50;;;7.48;100.00
58622;BME280;44389;51.578;5.456;2023-04-01T04:52:52;99216.31;;;7.47;100.00
58622;BME280;44389;51.578;5.456;2023-04-01T04:55:17;99219.72;;;7.46;100.00
58622;BME280;44389;51.578;5.456;2023-04-01T04:57:43;99223.16;;;7.45;100.00
58622;BME280;44389;51.578;5.456;2023-04-01T05:00:08;99229.94;;;7.45;100.00
58622;BME280;44389;51.578;5.456;2023-04-01T05:02:35;99234.22;;;7.44;100.00
58622;BME280;44389;51.578;5.456;2023-04-01T05:05:01;99237.63;;;7.43;100.00
58622;BME280;44389;51.578;5.456;2023-04-01T05:07:26;99229.94;;;7.43;100.00
58622;BME280;44389;51.578;5.456;2023-04-01T05:09:52;99238.47;;;7.44;100.00
58622;BME280;44389;51.578;5.456;2023-04-01T05:12:17;99246.16;;;7.44;100.00
58622;BME280;44389;51.578;5.456;2023-04-01T05:14:42;99247.88;;;7.43;100.00
58622;BME280;44389;51.578;5.456;2023-04-01T05:17:09;99252.19;;;7.44;100.00
58622;BME280;44389;51.578;5.456;2023-04-01T05:19:35;99257.31;;;7.44;100.00
58622;BME280;44389;51.578;5.456;2023-04-01T05:22:00;99258.13;;;7.43;100.00
58622;BME280;44389;51.578;5.456;2023-04-01T05:24:26;99258.16;;;7.45;100.00
58622;BME280;44389;51.578;5.456;2023-04-01T05:26:51;99265.00;;;7.44;100.00
58622;BME280;44389;51.578;5.456;2023-04-01T05:29:16;99264.09;;;7.44;100.00
58622;BME280;44389;51.578;5.456;2023-04-01T05:31:42;99272.69;;;7.44;100.00
58622;BME280;44389;51.578;5.456;2023-04-01T05:34:07;99277.81;;;7.44;100.00
58622;BME280;44389;51.578;5.456;2023-04-01T05:36:33;99283.78;;;7.45;100.00
58622;BME280;44389;51.578;5.456;2023-04-01T05:38:58;99282.09;;;7.45;100.00
58622;BME280;44389;51.578;5.456;2023-04-01T05:41:23;99291.47;;;7.45;100.00
58622;BME280;44389;51.578;5.456;2023-04-01T05:43:49;99288.06;;;7.44;100.00
58622;BME280;44389;51.578;5.456;2023-04-01T05:46:14;99295.78;;;7.46;100.00
58622;BME280;44389;51.578;5.456;2023-04-01T05:48:40;99305.19;;;7.47;100.00
58622;BME280;44389;51.578;5.456;2023-04-01T05:51:05;99293.22;;;7.47;100.00
58622;BME280;44389;51.578;5.456;2023-04-01T05:53:31;99309.50;;;7.49;100.00
58622;BME280;44389;51.578;5.456;2023-04-01T05:55:56;99312.06;;;7.49;100.00
58622;BME280;44389;51.578;5.456;2023-04-01T05:58:22;99307.81;;;7.51;100.00
58622;BME280;44389;51.578;5.456;2023-04-01T06:00:47;99306.13;;;7.52;100.00
58622;BME280;44389;51.578;5.456;2023-04-01T06:03:12;99314.75;;;7.55;100.00
58622;BME280;44389;51.578;5.456;2023-04-01T06:05:42;99319.00;;;7.56;100.00
58622;BME280;44389;51.578;5.456;2023-04-01T06:08:16;99330.16;;;7.58;100.00
58622;BME280;44389;51.578;5.456;2023-04-01T06:13:17;99331.94;;;7.63;100.00
58622;BME280;44389;51.578;5.456;2023-04-01T06:16:15;99333.72;;;7.67;100.00
58622;BME280;44389;51.578;5.456;2023-04-01T06:19:02;99349.09;;;7.67;100.00
58622;BME280;44389;51.578;5.456;2023-04-01T06:30:05;99353.50;;;7.74;100.00
58622;BME280;44389;51.578;5.456;2023-04-01T06:38:33;99378.31;;;7.75;100.00
58622;BME280;44389;51.578;5.456;2023-04-01T06:41:27;99369.88;;;7.81;100.00
58622;BME280;44389;51.578;5.456;2023-04-01T06:44:16;99379.28;;;7.82;100.00
58622;BME280;44389;51.578;5.456;2023-04-01T06:55:39;99391.41;;;7.90;100.00
58622;BME280;44389;51.578;5.456;2023-04-01T06:58:15;99399.09;;;7.90;100.00
58622;BME280;44389;51.578;5.456;2023-04-01T07:00:46;99400.88;;;7.95;100.00
58622;BME280;44389;51.578;5.456;2023-04-01T07:06:39;99409.47;;;7.97;100.00
58622;BME280;44389;51.578;5.456;2023-04-01T07:08:59;99414.66;;;8.00;100.00
58622;BME280;44389;51.578;5.456;2023-04-01T07:11:31;99414.69;;;8.03;100.00
58622;BME280;44389;51.578;5.456;2023-04-01T07:19:24;99426.03;;;8.16;100.00
58622;BME280;44389;51.578;5.456;2023-04-01T07:22:00;99430.31;;;8.17;100.00
58622;BME280;44389;51.578;5.456;2023-04-01T07:24:34;99426.91;;;8.16;100.00
58622;BME280;44389;51.578;5.456;2023-04-01T07:27:02;99442.31;;;8.16;100.00
58622;BME280;44389;51.578;5.456;2023-04-01T07:29:27;99437.19;;;8.18;100.00
58622;BME280;44389;51.578;5.456;2023-04-01T07:37:11;99454.44;;;8.27;100.00
58622;BME280;44389;51.578;5.456;2023-04-01T07:48:25;99475.63;;;8.64;100.00
58622;BME280;44389;51.578;5.456;2023-04-01T07:51:27;99477.47;;;8.74;100.00
58622;BME280;44389;51.578;5.456;2023-04-01T07:54:35;99476.59;;;8.72;100.00
58622;BME280;44389;51.578;5.456;2023-04-01T07:57:09;99473.09;;;8.68;100.00
58622;BME280;44389;51.578;5.456;2023-04-01T07:59:58;99487.69;;;8.71;100.00
58622;BME280;44389;51.578;5.456;2023-04-01T08:02:50;99491.91;;;8.67;100.00
58622;BME280;44389;51.578;5.456;2023-04-01T08:08:16;99497.13;;;8.72;100.00
58622;BME280;44389;51.578;5.456;2023-04-01T08:10:51;99496.31;;;8.73;100.00
58622;BME280;44389;51.578;5.456;2023-04-01T08:13:32;99500.66;;;8.80;100.00
58622;BME280;44389;51.578;5.456;2023-04-01T08:16:19;99509.25;;;8.81;100.00
58622;BME280;44389;51.578;5.456;2023-04-01T08:21:23;99520.53;;;8.90;100.00
58622;BME280;44389;51.578;5.456;2023-04-01T08:23:52;99517.19;;;8.96;100.00
58622;BME280;44389;51.578;5.456;2023-04-01T08:26:37;99513.84;;;9.03;100.00
58622;BME280;44389;51.578;5.456;2023-04-01T08:29:13;99519.00;;;9.03;100.00
58622;BME280;44389;51.578;5.456;2023-04-01T08:34:15;99526.72;;;9.05;100.00
58622;BME280;44389;51.578;5.456;2023-04-01T08:36:46;99531.91;;;9.06;100.00
58622;BME280;44389;51.578;5.456;2023-04-01T08:39:22;99537.13;;;9.13;100.00
58622;BME280;44389;51.578;5.456;2023-04-01T08:47:50;99543.97;;;9.14;100.00
58622;BME280;44389;51.578;5.456;2023-04-01T08:50:39;99549.22;;;9.20;100.00
58622;BME280;44389;51.578;5.456;2023-04-01T08:56:36;99553.44;;;9.16;100.00
58622;BME280;44389;51.578;5.456;2023-04-01T08:59:21;99573.97;;;9.13;100.00
58622;BME280;44389;51.578;5.456;2023-04-01T09:04:37;99577.28;;;9.06;100.00
58622;BME280;44389;51.578;5.456;2023-04-01T09:13:27;99592.47;;;8.90;100.00
58622;BME280;44389;51.578;5.456;2023-04-01T09:16:02;99595.88;;;8.89;100.00
58622;BME280;44389;51.578;5.456;2023-04-01T09:21:41;99593.59;;;9.08;100.00
58622;BME280;44389;51.578;5.456;2023-04-01T09:29:55;99600.59;;;9.17;100.00
58622;BME280;44389;51.578;5.456;2023-04-01T09:40:58;99615.28;;;9.26;100.00
58622;BME280;44389;51.578;5.456;2023-04-01T09:51:55;99631.00;;;9.44;100.00
58622;BME280;44389;51.578;5.456;2023-04-01T10:02:45;99632.78;;;9.51;100.00
58622;BME280;44389;51.578;5.456;2023-04-01T10:16:10;99652.50;;;9.49;100.00
58622;BME280;44389;51.578;5.456;2023-04-01T10:19:10;99661.03;;;9.47;100.00
58622;BME280;44389;51.578;5.456;2023-04-01T10:27:49;99660.13;;;9.43;100.00
58622;BME280;44389;51.578;5.456;2023-04-01T10:33:53;99672.38;;;9.60;100.00
58622;BME280;44389;51.578;5.456;2023-04-01T10:36:52;99675.16;;;9.74;100.00
58622;BME280;44389;51.578;5.456;2023-04-01T10:48:14;99679.84;;;9.43;100.00
58622;BME280;44389;51.578;5.456;2023-04-01T11:06:05;99693.22;;;9.23;100.00
58622;BME280;44389;51.578;5.456;2023-04-01T11:08:57;99696.66;;;9.22;100.00
58622;BME280;44389;51.578;5.456;2023-04-01T11:20:42;99712.66;;;9.05;100.00
58622;BME280;44389;51.578;5.456;2023-04-01T11:26:07;99714.19;;;8.96;100.00
58622;BME280;44389;51.578;5.456;2023-04-01T11:33:55;99721.88;;;8.94;100.00
58622;BME280;44389;51.578;5.456;2023-04-01T11:39:33;99740.91;;;9.05;100.00
58622;BME280;44389;51.578;5.456;2023-04-01T11:42:14;99735.00;;;9.11;100.00
58622;BME280;44389;51.578;5.456;2023-04-01T11:44:55;99734.19;;;9.12;100.00
58622;BME280;44389;51.578;5.456;2023-04-01T11:48:03;99742.03;;;9.21;100.00
58622;BME280;44389;51.578;5.456;2023-04-01T12:02:33;99764.03;;;9.54;100.00
58622;BME280;44389;51.578;5.456;2023-04-01T12:19:19;99784.06;;;9.72;100.00
58622;BME280;44389;51.578;5.456;2023-04-01T12:30:21;99791.88;;;9.80;100.00
58622;BME280;44389;51.578;5.456;2023-04-01T12:38:46;99809.13;;;9.86;100.00
58622;BME280;44389;51.578;5.456;2023-04-01T12:41:27;99809.84;;;9.77;100.00
58622;BME280;44389;51.578;5.456;2023-04-01T12:44:31;99816.72;;;9.78;100.00
58622;BME280;44389;51.578;5.456;2023-04-01T12:47:44;99810.69;;;9.76;100.00
58622;BME280;44389;51.578;5.456;2023-04-01T12:50:10;99813.28;;;9.76;100.00
58622;BME280;44389;51.578;5.456;2023-04-01T12:53:16;99818.25;;;9.67;100.00
58622;BME280;44389;51.578;5.456;2023-04-01T12:55:45;99818.88;;;9.53;100.00
58622;BME280;44389;51.578;5.456;2023-04-01T12:58:42;99823.25;;;9.58;100.00
58622;BME280;44389;51.578;5.456;2023-04-01T13:01:43;99823.22;;;9.56;100.00
58622;BME280;44389;51.578;5.456;2023-04-01T13:10:06;99833.38;;;9.48;100.00
58622;BME280;44389;51.578;5.456;2023-04-01T13:13:05;99839.34;;;9.47;100.00
58622;BME280;44389;51.578;5.456;2023-04-01T13:20:57;99838.34;;;9.37;100.00
58622;BME280;44389;51.578;5.456;2023-04-01T13:23:48;99855.47;;;9.37;100.00
58622;BME280;44389;51.578;5.456;2023-04-01T13:26:31;99847.69;;;9.32;100.00
58622;BME280;44389;51.578;5.456;2023-04-01T13:31:50;99864.78;;;9.32;100.00
58622;BME280;44389;51.578;5.456;2023-04-01T13:42:14;99866.28;;;9.20;100.00
58622;BME280;44389;51.578;5.456;2023-04-01T13:45:02;99874.13;;;9.28;100.00
58622;BME280;44389;51.578;5.456;2023-04-01T13:47:52;99870.75;;;9.31;100.00
58622;BME280;44389;51.578;5.456;2023-04-01T13:50:45;99882.66;;;9.26;100.00
58622;BME280;44389;51.578;5.456;2023-04-01T13:59:25;99889.31;;;9.14;100.00
58622;BME280;44389;51.578;5.456;2023-04-01T14:10:55;99901.44;;;9.21;100.00
58622;BME280;44389;51.578;5.456;2023-04-01T14:13:31;99896.44;;;9.28;100.00
58622;BME280;44389;51.578;5.456;2023-04-01T14:16:29;99899.19;;;9.38;100.00
58622;BME280;44389;51.578;5.456;2023-04-01T14:19:10;99906.16;;;9.43;100.00
58622;BME280;44389;51.578;5.456;2023-04-01T14:22:01;99903.53;;;9.41;100.00
58622;BME280;44389;51.578;5.456;2023-04-01T14:33:32;99915.34;;;9.30;100.00
58622;BME280;44389;51.578;5.456;2023-04-01T14:36:29;99922.09;;;9.25;100.00
58622;BME280;44389;51.578;5.456;2023-04-01T14:41:44;99927.22;;;9.25;100.00
58622;BME280;44389;51.578;5.456;2023-04-01T14:44:21;99923.63;;;9.16;100.00
58622;BME280;44389;51.578;5.456;2023-04-01T14:47:22;99938.31;;;9.22;100.00
58622;BME280;44389;51.578;5.456;2023-04-01T14:49:53;99934.94;;;9.25;100.00
58622;BME280;44389;51.578;5.456;2023-04-01T14:52:31;99939.16;;;9.21;100.00
58622;BME280;44389;51.578;5.456;2023-04-01T14:55:00;99939.03;;;9.16;100.00
58622;BME280;44389;51.578;5.456;2023-04-01T14:57:29;99939.88;;;9.15;100.00
58622;BME280;44389;51.578;5.456;2023-04-01T15:02:46;99953.66;;;9.19;100.00
58622;BME280;44389;51.578;5.456;2023-04-01T15:11:23;99959.88;;;9.29;100.00
58622;BME280;44389;51.578;5.456;2023-04-01T15:13:43;99960.88;;;9.35;100.00
58622;BME280;44389;51.578;5.456;2023-04-01T15:27:42;99983.88;;;9.29;100.00
58622;BME280;44389;51.578;5.456;2023-04-01T15:41:01;99989.00;;;9.28;100.00
58622;BME280;44389;51.578;5.456;2023-04-01T15:43:32;99996.59;;;9.23;100.00
58622;BME280;44389;51.578;5.456;2023-04-01T15:48:50;100001.53;;;9.14;100.00
58622;BME280;44389;51.578;5.456;2023-04-01T15:54:30;100002.34;;;9.11;100.00
58622;BME280;44389;51.578;5.456;2023-04-01T15:57:20;100007.56;;;9.14;100.00
58622;BME280;44389;51.578;5.456;2023-04-01T16:02:43;99999.78;;;9.11;100.00
58622;BME280;44389;51.578;5.456;2023-04-01T16:08:17;100015.91;;;9.04;100.00
58622;BME280;44389;51.578;5.456;2023-04-01T16:13:52;100012.38;;;8.99;100.00
58622;BME280;44389;51.578;5.456;2023-04-01T16:19:10;100015.63;;;8.92;100.00
58622;BME280;44389;51.578;5.456;2023-04-01T16:21:53;100018.25;;;8.95;100.00
58622;BME280;44389;51.578;5.456;2023-04-01T16:24:38;100024.16;;;8.90;100.00
58622;BME280;44389;51.578;5.456;2023-04-01T16:32:57;100035.25;;;8.88;100.00
58622;BME280;44389;51.578;5.456;2023-04-01T16:35:35;100037.72;;;8.83;100.00
58622;BME280;44389;51.578;5.456;2023-04-01T16:38:19;100032.56;;;8.83;100.00
58622;BME280;44389;51.578;5.456;2023-04-01T16:41:17;100039.38;;;8.81;100.00
58622;BME280;44389;51.578;5.456;2023-04-01T16:43:54;100039.38;;;8.81;100.00
58622;BME280;44389;51.578;5.456;2023-04-01T16:46:32;100041.97;;;8.83;100.00
58622;BME280;44389;51.578;5.456;2023-04-01T16:54:47;100064.56;;;8.96;100.00
58622;BME280;44389;51.578;5.456;2023-04-01T16:57:27;100070.63;;;9.00;100.00
58622;BME280;44389;51.578;5.456;2023-04-01T17:02:27;100075.84;;;9.03;100.00
58622;BME280;44389;51.578;5.456;2023-04-01T17:05:12;100089.59;;;9.05;100.00
58622;BME280;44389;51.578;5.456;2023-04-01T17:07:59;100093.09;;;9.07;100.00
58622;BME280;44389;51.578;5.456;2023-04-01T17:11:09;100094.00;;;9.09;100.00
58622;BME280;44389;51.578;5.456;2023-04-01T17:13:46;100109.38;;;9.07;100.00
58622;BME280;44389;51.578;5.456;2023-04-01T17:26:53;100129.06;;;9.07;100.00
58622;BME280;44389;51.578;5.456;2023-04-01T17:37:24;100153.78;;;9.02;100.00
58622;BME280;44389;51.578;5.456;2023-04-01T17:39:57;100158.00;;;9.00;100.00
58622;BME280;44389;51.578;5.456;2023-04-01T17:42:45;100166.66;;;9.02;100.00
58622;BME280;44389;51.578;5.456;2023-04-01T17:45:49;100170.03;;;9.01;100.00
58622;BME280;44389;51.578;5.456;2023-04-01T17:53:40;100193.00;;;8.95;100.00
58622;BME280;44389;51.578;5.456;2023-04-01T17:56:11;100201.78;;;9.01;100.00
58622;BME280;44389;51.578;5.456;2023-04-01T17:58:59;100204.16;;;8.94;100.00
58622;BME280;44389;51.578;5.456;2023-04-01T18:17:41;100246.50;;;8.76;100.00
58622;BME280;44389;51.578;5.456;2023-04-01T18:20:20;100246.44;;;8.73;100.00
58622;BME280;44389;51.578;5.456;2023-04-01T18:23:04;100260.97;;;8.72;100.00
58622;BME280;44389;51.578;5.456;2023-04-01T18:25:39;100264.31;;;8.70;100.00
58622;BME280;44389;51.578;5.456;2023-04-01T18:30:50;100280.41;;;8.63;100.00
58622;BME280;44389;51.578;5.456;2023-04-01T18:36:19;100297.38;;;8.57;100.00
58622;BME280;44389;51.578;5.456;2023-04-01T18:38:52;100305.72;;;8.50;100.00
58622;BME280;44389;51.578;5.456;2023-04-01T18:41:38;100309.97;;;8.48;100.00
58622;BME280;44389;51.578;5.456;2023-04-01T18:52:40;100337.88;;;8.39;100.00
58622;BME280;44389;51.578;5.456;2023-04-01T18:55:42;100352.41;;;8.38;100.00
58622;BME280;44389;51.578;5.456;2023-04-01T18:58:34;100354.84;;;8.34;100.00
58622;BME280;44389;51.578;5.456;2023-04-01T19:01:23;100358.13;;;8.30;100.00
58622;BME280;44389;51.578;5.456;2023-04-01T19:06:59;100376.66;;;8.19;100.00
58622;BME280;44389;51.578;5.456;2023-04-01T19:09:31;100382.47;;;8.14;100.00
58622;BME280;44389;51.578;5.456;2023-04-01T19:15:12;100394.28;;;8.08;100.00
58622;BME280;44389;51.578;5.456;2023-04-01T19:17:58;100404.56;;;8.08;100.00
58622;BME280;44389;51.578;5.456;2023-04-01T19:20:47;100408.78;;;8.08;100.00
58622;BME280;44389;51.578;5.456;2023-04-01T19:26:42;100419.41;;;7.91;100.00
58622;BME280;44389;51.578;5.456;2023-04-01T19:29:20;100426.16;;;7.89;100.00
58622;BME280;44389;51.578;5.456;2023-04-01T19:37:40;100438.72;;;7.82;100.00
58622;BME280;44389;51.578;5.456;2023-04-01T19:43:44;100445.34;;;7.75;100.00
58622;BME280;44389;51.578;5.456;2023-04-01T19:46:18;100447.19;;;7.79;100.00
58622;BME280;44389;51.578;5.456;2023-04-01T19:54:30;100469.91;;;7.68;100.00
58622;BME280;44389;51.578;5.456;2023-04-01T19:57:21;100477.53;;;7.67;100.00
58622;BME280;44389;51.578;5.456;2023-04-01T20:00:26;100480.06;;;7.65;100.00
58622;BME280;44389;51.578;5.456;2023-04-01T20:03:03;100485.03;;;7.61;100.00
58622;BME280;44389;51.578;5.456;2023-04-01T20:08:17;100503.63;;;7.55;100.00
58622;BME280;44389;51.578;5.456;2023-04-01T20:10:56;100507.72;;;7.50;100.00
58622;BME280;44389;51.578;5.456;2023-04-01T20:16:20;100527.13;;;7.43;100.00
58622;BME280;44389;51.578;5.456;2023-04-01T20:23:43;100547.34;;;7.35;100.00
58622;BME280;44389;51.578;5.456;2023-04-01T20:26:12;100547.25;;;7.32;100.00
58622;BME280;44389;51.578;5.456;2023-04-01T20:31:12;100557.25;;;7.26;100.00
58622;BME280;44389;51.578;5.456;2023-04-01T20:34:15;100564.16;;;7.27;100.00
58622;BME280;44389;51.578;5.456;2023-04-01T20:39:44;100571.69;;;7.24;100.00
58622;BME280;44389;51.578;5.456;2023-04-01T20:42:23;100577.56;;;7.21;100.00